sensor_id;sensor_type;location;lat;lon;timestamp;P1;durP1;ratioP1;P2;durP2;ratioP2
37431;SDS011;23292;51.300;6.252;2022-10-17T00:02:21;13.70;;;8.38;;
37431;SDS011;23292;51.300;6.252;2022-10-17T00:04:49;12.98;;;8.25;;
37431;SDS011;23292;51.300;6.252;2022-10-17T00:07:15;18.27;;;8.68;;
37431;SDS011;23292;51.300;6.252;2022-10-17T00:09:42;12.80;;;7.45;;
37431;SDS011;23292;51.300;6.252;2022-10-17T00:12:09;12.77;;;8.55;;
37431;SDS011;23292;51.300;6.252;2022-10-17T00:14:36;16.50;;;9.40;;
37431;SDS011;23292;51.300;6.252;2022-10-17T00:17:03;17.55;;;9.50;;
37431;SDS011;23292;51.300;6.252;2022-10-17T00:19:30;19.02;;;9.35;;
37431;SDS011;23292;51.300;6.252;2022-10-17T00:21:56;14.65;;;9.07;;
37431;SDS011;23292;51.300;6.252;2022-10-17T00:24:23;14.45;;;9.27;;
37431;SDS011;23292;51.300;6.252;2022-10-17T00:26:50;20.10;;;10.02;;
37431;SDS011;23292;51.300;6.252;2022-10-17T00:29:17;14.63;;;9.70;;
37431;SDS011;23292;51.300;6.252;2022-10-17T00:31:46;19.88;;;10.52;;
37431;SDS011;23292;51.300;6.252;2022-10-17T00:34:12;21.02;;;10.50;;
37431;SDS011;23292;51.300;6.252;2022-10-17T00:36:39;17.52;;;9.45;;
37431;SDS011;23292;51.300;6.252;2022-10-17T00:39:06;19.58;;;10.80;;
37431;SDS011;23292;51.300;6.252;2022-10-17T00:41:34;18.38;;;9.95;;
37431;SDS011;23292;51.300;6.252;2022-10-17T00:44:05;15.77;;;9.82;;
37431;SDS011;23292;51.300;6.252;2022-10-17T00:46:34;15.77;;;9.73;;
37431;SDS011;23292;51.300;6.252;2022-10-17T00:49:09;16.35;;;9.40;;
37431;SDS011;23292;51.300;6.252;2022-10-17T00:51:42;18.00;;;9.88;;
37431;SDS011;23292;51.300;6.252;2022-10-17T00:54:16;19.20;;;9.52;;
37431;SDS011;23292;51.300;6.252;2022-10-17T00:56:46;17.80;;;9.20;;
37431;SDS011;23292;51.300;6.252;2022-10-17T00:59:14;21.63;;;9.43;;
37431;SDS011;23292;51.300;6.252;2022-10-17T01:01:43;19.45;;;10.48;;
37431;SDS011;23292;51.300;6.252;2022-10-17T01:04:32;14.80;;;9.60;;
37431;SDS011;23292;51.300;6.252;2022-10-17T01:06:58;16.63;;;9.32;;
37431;SDS011;23292;51.300;6.252;2022-10-17T01:09:25;17.35;;;10.07;;
37431;SDS011;23292;51.300;6.252;2022-10-17T01:11:58;20.27;;;9.90;;
37431;SDS011;23292;51.300;6.252;2022-10-17T01:23:22;16.25;;;9.93;;
37431;SDS011;23292;51.300;6.252;2022-10-17T01:29:00;15.85;;;9.40;;
37431;SDS011;23292;51.300;6.252;2022-10-17T01:34:38;16.77;;;10.05;;
37431;SDS011;23292;51.300;6.252;2022-10-17T01:37:32;14.55;;;9.38;;
37431;SDS011;23292;51.300;6.252;2022-10-17T01:42:44;14.95;;;8.70;;
37431;SDS011;23292;51.300;6.252;2022-10-17T01:45:12;16.02;;;10.02;;
37431;SDS011;23292;51.300;6.252;2022-10-17T01:50:13;15.55;;;9.48;;
37431;SDS011;23292;51.300;6.252;2022-10-17T01:52:46;16.95;;;9.68;;
37431;SDS011;23292;51.300;6.252;2022-10-17T01:55:26;17.15;;;9.30;;
37431;SDS011;23292;51.300;6.252;2022-10-17T01:58:02;16.55;;;9.30;;
37431;SDS011;23292;51.300;6.252;2022-10-17T02:00:33;15.85;;;9.60;;
37431;SDS011;23292;51.300;6.252;2022-10-17T02:03:02;15.35;;;9.52;;
37431;SDS011;23292;51.300;6.252;2022-10-17T02:05:34;16.73;;;9.68;;
37431;SDS011;23292;51.300;6.252;2022-10-17T02:08:04;15.43;;;9.88;;
37431;SDS011;23292;51.300;6.252;2022-10-17T02:10:38;14.50;;;9.18;;
37431;SDS011;23292;51.300;6.252;2022-10-17T02:24:31;19.38;;;10.18;;
37431;SDS011;23292;51.300;6.252;2022-10-17T02:27:13;19.27;;;10.43;;
37431;SDS011;23292;51.300;6.252;2022-10-17T02:30:01;17.83;;;10.27;;
37431;SDS011;23292;51.300;6.252;2022-10-17T02:35:20;17.83;;;10.48;;
37431;SDS011;23292;51.300;6.252;2022-10-17T02:37:50;20.25;;;10.77;;
37431;SDS011;23292;51.300;6.252;2022-10-17T02:40:20;23.60;;;11.85;;
37431;SDS011;23292;51.300;6.252;2022-10-17T02:42:50;20.08;;;11.20;;
37431;SDS011;23292;51.300;6.252;2022-10-17T02:45:19;19.27;;;11.43;;
37431;SDS011;23292;51.300;6.252;2022-10-17T02:47:50;17.65;;;10.48;;
37431;SDS011;23292;51.300;6.252;2022-10-17T02:53:08;21.63;;;10.90;;
37431;SDS011;23292;51.300;6.252;2022-10-17T02:55:45;15.82;;;10.65;;
37431;SDS011;23292;51.300;6.252;2022-10-17T02:58:20;18.98;;;11.30;;
37431;SDS011;23292;51.300;6.252;2022-10-17T03:00:52;17.48;;;10.18;;
37431;SDS011;23292;51.300;6.252;2022-10-17T03:03:24;17.30;;;10.82;;
37431;SDS011;23292;51.300;6.252;2022-10-17T03:05:53;20.63;;;11.25;;
37431;SDS011;23292;51.300;6.252;2022-10-17T03:08:23;20.38;;;11.18;;
37431;SDS011;23292;51.300;6.252;2022-10-17T03:10:50;17.88;;;10.77;;
37431;SDS011;23292;51.300;6.252;2022-10-17T03:13:17;16.50;;;10.25;;
37431;SDS011;23292;51.300;6.252;2022-10-17T03:15:44;15.85;;;9.93;;
37431;SDS011;23292;51.300;6.252;2022-10-17T03:18:12;18.15;;;10.38;;
37431;SDS011;23292;51.300;6.252;2022-10-17T03:20:39;20.42;;;10.10;;
37431;SDS011;23292;51.300;6.252;2022-10-17T03:23:07;17.00;;;9.02;;
37431;SDS011;23292;51.300;6.252;2022-10-17T03:25:34;20.98;;;10.95;;
37431;SDS011;23292;51.300;6.252;2022-10-17T03:28:01;18.10;;;10.05;;
37431;SDS011;23292;51.300;6.252;2022-10-17T03:30:28;16.80;;;9.63;;
37431;SDS011;23292;51.300;6.252;2022-10-17T03:32:58;16.63;;;10.02;;
37431;SDS011;23292;51.300;6.252;2022-10-17T03:35:25;18.92;;;10.77;;
37431;SDS011;23292;51.300;6.252;2022-10-17T03:37:54;19.95;;;10.55;;
37431;SDS011;23292;51.300;6.252;2022-10-17T03:40:22;23.00;;;11.07;;
37431;SDS011;23292;51.300;6.252;2022-10-17T03:42:50;17.02;;;10.70;;
37431;SDS011;23292;51.300;6.252;2022-10-17T03:45:17;18.77;;;10.43;;
37431;SDS011;23292;51.300;6.252;2022-10-17T03:47:44;24.73;;;11.52;;
37431;SDS011;23292;51.300;6.252;2022-10-17T03:50:11;20.55;;;11.40;;
37431;SDS011;23292;51.300;6.252;2022-10-17T03:52:39;18.02;;;10.32;;
37431;SDS011;23292;51.300;6.252;2022-10-17T03:55:06;19.70;;;10.45;;
37431;SDS011;23292;51.300;6.252;2022-10-17T03:57:34;17.58;;;11.13;;
37431;SDS011;23292;51.300;6.252;2022-10-17T04:00:03;18.45;;;11.63;;
37431;SDS011;23292;51.300;6.252;2022-10-17T04:02:39;21.23;;;11.35;;
37431;SDS011;23292;51.300;6.252;2022-10-17T04:05:08;30.52;;;12.18;;
37431;SDS011;23292;51.300;6.252;2022-10-17T04:07:35;22.77;;;12.40;;
37431;SDS011;23292;51.300;6.252;2022-10-17T04:10:03;22.42;;;11.93;;
37431;SDS011;23292;51.300;6.252;2022-10-17T04:12:31;20.98;;;12.05;;
37431;SDS011;23292;51.300;6.252;2022-10-17T04:14:58;20.63;;;11.57;;
37431;SDS011;23292;51.300;6.252;2022-10-17T04:17:25;24.35;;;13.10;;
37431;SDS011;23292;51.300;6.252;2022-10-17T04:19:52;24.85;;;12.50;;
37431;SDS011;23292;51.300;6.252;2022-10-17T04:22:21;24.33;;;11.75;;
37431;SDS011;23292;51.300;6.252;2022-10-17T04:24:47;20.58;;;11.77;;
37431;SDS011;23292;51.300;6.252;2022-10-17T04:27:36;19.90;;;12.05;;
37431;SDS011;23292;51.300;6.252;2022-10-17T04:30:03;20.60;;;12.05;;
37431;SDS011;23292;51.300;6.252;2022-10-17T04:32:35;23.30;;;10.95;;
37431;SDS011;23292;51.300;6.252;2022-10-17T04:35:11;24.83;;;11.82;;
37431;SDS011;23292;51.300;6.252;2022-10-17T04:37:42;19.80;;;11.55;;
37431;SDS011;23292;51.300;6.252;2022-10-17T04:40:15;17.80;;;10.30;;
37431;SDS011;23292;51.300;6.252;2022-10-17T04:42:42;20.73;;;11.45;;
37431;SDS011;23292;51.300;6.252;2022-10-17T04:45:12;23.27;;;11.55;;
37431;SDS011;23292;51.300;6.252;2022-10-17T04:47:40;18.05;;;11.15;;
37431;SDS011;23292;51.300;6.252;2022-10-17T04:50:06;24.13;;;12.35;;
37431;SDS011;23292;51.300;6.252;2022-10-17T04:52:34;24.17;;;11.05;;
37431;SDS011;23292;51.300;6.252;2022-10-17T04:55:06;22.58;;;11.77;;
37431;SDS011;23292;51.300;6.252;2022-10-17T04:57:34;23.58;;;11.57;;
37431;SDS011;23292;51.300;6.252;2022-10-17T05:00:16;25.70;;;13.27;;
37431;SDS011;23292;51.300;6.252;2022-10-17T05:02:56;17.73;;;10.88;;
37431;SDS011;23292;51.300;6.252;2022-10-17T05:05:24;24.05;;;11.65;;
37431;SDS011;23292;51.300;6.252;2022-10-17T05:07:52;19.60;;;11.13;;
37431;SDS011;23292;51.300;6.252;2022-10-17T05:10:23;20.58;;;11.70;;
37431;SDS011;23292;51.300;6.252;2022-10-17T05:12:51;21.88;;;11.30;;
37431;SDS011;23292;51.300;6.252;2022-10-17T05:15:21;22.17;;;11.82;;
37431;SDS011;23292;51.300;6.252;2022-10-17T05:17:53;22.45;;;12.02;;
37431;SDS011;23292;51.300;6.252;2022-10-17T05:20:22;24.92;;;11.90;;
37431;SDS011;23292;51.300;6.252;2022-10-17T05:22:49;19.95;;;11.38;;
37431;SDS011;23292;51.300;6.252;2022-10-17T05:25:16;23.42;;;11.65;;
37431;SDS011;23292;51.300;6.252;2022-10-17T05:27:44;18.58;;;11.25;;
37431;SDS011;23292;51.300;6.252;2022-10-17T05:30:11;20.25;;;11.48;;
37431;SDS011;23292;51.300;6.252;2022-10-17T05:32:39;16.60;;;10.90;;
37431;SDS011;23292;51.300;6.252;2022-10-17T05:35:06;16.95;;;10.73;;
37431;SDS011;23292;51.300;6.252;2022-10-17T05:37:35;25.42;;;12.32;;
37431;SDS011;23292;51.300;6.252;2022-10-17T05:40:03;18.77;;;11.20;;
37431;SDS011;23292;51.300;6.252;2022-10-17T05:42:30;23.30;;;11.70;;
37431;SDS011;23292;51.300;6.252;2022-10-17T05:44:58;20.23;;;11.18;;
37431;SDS011;23292;51.300;6.252;2022-10-17T05:47:25;21.10;;;10.73;;
37431;SDS011;23292;51.300;6.252;2022-10-17T05:49:52;20.70;;;11.60;;
37431;SDS011;23292;51.300;6.252;2022-10-17T05:52:25;21.20;;;12.02;;
37431;SDS011;23292;51.300;6.252;2022-10-17T05:55:02;26.52;;;11.75;;
37431;SDS011;23292;51.300;6.252;2022-10-17T05:57:30;20.35;;;11.98;;
37431;SDS011;23292;51.300;6.252;2022-10-17T05:59:58;30.08;;;13.70;;
37431;SDS011;23292;51.300;6.252;2022-10-17T06:02:27;23.58;;;12.20;;
37431;SDS011;23292;51.300;6.252;2022-10-17T06:04:54;25.60;;;12.13;;
37431;SDS011;23292;51.300;6.252;2022-10-17T06:07:22;24.08;;;12.65;;
37431;SDS011;23292;51.300;6.252;2022-10-17T06:09:50;22.15;;;11.90;;
37431;SDS011;23292;51.300;6.252;2022-10-17T06:12:16;27.10;;;12.73;;
37431;SDS011;23292;51.300;6.252;2022-10-17T06:14:44;24.73;;;13.45;;
37431;SDS011;23292;51.300;6.252;2022-10-17T06:17:12;26.67;;;12.60;;
37431;SDS011;23292;51.300;6.252;2022-10-17T06:19:42;23.05;;;12.45;;
37431;SDS011;23292;51.300;6.252;2022-10-17T06:22:11;24.35;;;12.82;;
37431;SDS011;23292;51.300;6.252;2022-10-17T06:24:38;28.70;;;12.90;;
37431;SDS011;23292;51.300;6.252;2022-10-17T06:27:05;26.20;;;12.80;;
37431;SDS011;23292;51.300;6.252;2022-10-17T06:32:04;26.20;;;13.52;;
37431;SDS011;23292;51.300;6.252;2022-10-17T06:34:36;29.77;;;13.48;;
37431;SDS011;23292;51.300;6.252;2022-10-17T06:37:03;29.52;;;14.15;;
37431;SDS011;23292;51.300;6.252;2022-10-17T06:39:33;22.17;;;12.65;;
37431;SDS011;23292;51.300;6.252;2022-10-17T06:42:05;23.35;;;12.52;;
37431;SDS011;23292;51.300;6.252;2022-10-17T06:44:44;21.73;;;13.02;;
37431;SDS011;23292;51.300;6.252;2022-10-17T06:47:31;23.75;;;12.68;;
37431;SDS011;23292;51.300;6.252;2022-10-17T06:50:03;23.65;;;13.75;;
37431;SDS011;23292;51.300;6.252;2022-10-17T06:52:40;24.63;;;14.15;;
37431;SDS011;23292;51.300;6.252;2022-10-17T06:55:26;22.17;;;12.38;;
37431;SDS011;23292;51.300;6.252;2022-10-17T06:58:14;21.58;;;12.25;;
37431;SDS011;23292;51.300;6.252;2022-10-17T07:00:59;20.35;;;12.93;;
37431;SDS011;23292;51.300;6.252;2022-10-17T07:03:27;28.85;;;14.77;;
37431;SDS011;23292;51.300;6.252;2022-10-17T07:05:54;24.27;;;13.07;;
37431;SDS011;23292;51.300;6.252;2022-10-17T07:08:22;22.75;;;13.30;;
37431;SDS011;23292;51.300;6.252;2022-10-17T07:10:49;24.45;;;13.15;;
37431;SDS011;23292;51.300;6.252;2022-10-17T07:13:16;20.55;;;11.40;;
37431;SDS011;23292;51.300;6.252;2022-10-17T07:15:44;20.90;;;11.45;;
37431;SDS011;23292;51.300;6.252;2022-10-17T07:18:12;16.05;;;10.82;;
37431;SDS011;23292;51.300;6.252;2022-10-17T07:20:39;20.30;;;10.43;;
37431;SDS011;23292;51.300;6.252;2022-10-17T07:23:06;19.75;;;9.73;;
37431;SDS011;23292;51.300;6.252;2022-10-17T07:25:35;17.88;;;9.65;;
37431;SDS011;23292;51.300;6.252;2022-10-17T07:28:07;14.70;;;8.88;;
37431;SDS011;23292;51.300;6.252;2022-10-17T07:30:34;13.82;;;8.85;;
37431;SDS011;23292;51.300;6.252;2022-10-17T07:33:06;17.77;;;8.65;;
37431;SDS011;23292;51.300;6.252;2022-10-17T07:35:33;16.48;;;7.97;;
37431;SDS011;23292;51.300;6.252;2022-10-17T07:38:00;15.13;;;8.43;;
37431;SDS011;23292;51.300;6.252;2022-10-17T07:40:26;15.77;;;8.63;;
37431;SDS011;23292;51.300;6.252;2022-10-17T07:42:54;16.02;;;7.85;;
37431;SDS011;23292;51.300;6.252;2022-10-17T07:45:23;15.15;;;7.85;;
37431;SDS011;23292;51.300;6.252;2022-10-17T07:47:56;14.90;;;7.90;;
37431;SDS011;23292;51.300;6.252;2022-10-17T07:50:23;16.80;;;7.00;;
37431;SDS011;23292;51.300;6.252;2022-10-17T07:52:50;11.52;;;7.03;;
37431;SDS011;23292;51.300;6.252;2022-10-17T07:55:17;9.35;;;6.40;;
37431;SDS011;23292;51.300;6.252;2022-10-17T07:57:44;14.38;;;5.97;;
37431;SDS011;23292;51.300;6.252;2022-10-17T08:00:11;10.88;;;6.13;;
37431;SDS011;23292;51.300;6.252;2022-10-17T08:02:39;16.45;;;6.07;;
37431;SDS011;23292;51.300;6.252;2022-10-17T08:05:06;12.27;;;5.88;;
37431;SDS011;23292;51.300;6.252;2022-10-17T08:07:33;11.57;;;6.50;;
37431;SDS011;23292;51.300;6.252;2022-10-17T08:10:00;11.23;;;5.72;;
37431;SDS011;23292;51.300;6.252;2022-10-17T08:12:27;15.75;;;6.45;;
37431;SDS011;23292;51.300;6.252;2022-10-17T08:14:57;14.13;;;6.95;;
37431;SDS011;23292;51.300;6.252;2022-10-17T08:17:24;11.90;;;6.47;;
37431;SDS011;23292;51.300;6.252;2022-10-17T08:19:51;15.23;;;6.32;;
37431;SDS011;23292;51.300;6.252;2022-10-17T08:22:18;9.27;;;5.30;;
37431;SDS011;23292;51.300;6.252;2022-10-17T08:24:45;14.38;;;6.13;;
37431;SDS011;23292;51.300;6.252;2022-10-17T08:27:12;10.30;;;5.05;;
37431;SDS011;23292;51.300;6.252;2022-10-17T08:29:38;12.07;;;5.82;;
37431;SDS011;23292;51.300;6.252;2022-10-17T08:32:05;12.05;;;5.82;;
37431;SDS011;23292;51.300;6.252;2022-10-17T08:34:35;10.00;;;4.93;;
37431;SDS011;23292;51.300;6.252;2022-10-17T08:37:02;11.27;;;5.53;;
37431;SDS011;23292;51.300;6.252;2022-10-17T08:39:29;12.65;;;5.30;;
37431;SDS011;23292;51.300;6.252;2022-10-17T08:41:59;14.40;;;5.35;;
37431;SDS011;23292;51.300;6.252;2022-10-17T08:47:10;14.32;;;5.85;;
37431;SDS011;23292;51.300;6.252;2022-10-17T08:49:47;8.43;;;4.78;;
37431;SDS011;23292;51.300;6.252;2022-10-17T08:55:00;12.65;;;4.80;;
37431;SDS011;23292;51.300;6.252;2022-10-17T08:57:27;9.85;;;4.57;;
37431;SDS011;23292;51.300;6.252;2022-10-17T08:59:54;10.20;;;4.40;;
37431;SDS011;23292;51.300;6.252;2022-10-17T09:02:31;10.02;;;4.40;;
37431;SDS011;23292;51.300;6.252;2022-10-17T09:05:24;11.68;;;4.90;;
37431;SDS011;23292;51.300;6.252;2022-10-17T09:08:04;7.25;;;4.20;;
37431;SDS011;23292;51.300;6.252;2022-10-17T09:10:52;9.32;;;4.60;;
37431;SDS011;23292;51.300;6.252;2022-10-17T09:13:32;8.18;;;4.35;;
37431;SDS011;23292;51.300;6.252;2022-10-17T09:18:57;6.97;;;3.88;;
37431;SDS011;23292;51.300;6.252;2022-10-17T09:21:32;6.38;;;4.05;;
37431;SDS011;23292;51.300;6.252;2022-10-17T09:24:17;9.00;;;4.40;;
37431;SDS011;23292;51.300;6.252;2022-10-17T09:26:50;10.68;;;4.45;;
37431;SDS011;23292;51.300;6.252;2022-10-17T09:29:23;9.70;;;4.68;;
37431;SDS011;23292;51.300;6.252;2022-10-17T09:32:10;10.13;;;4.55;;
37431;SDS011;23292;51.300;6.252;2022-10-17T09:34:42;10.38;;;4.40;;
37431;SDS011;23292;51.300;6.252;2022-10-17T09:37:13;9.55;;;4.13;;
37431;SDS011;23292;51.300;6.252;2022-10-17T09:39:42;11.60;;;4.28;;
37431;SDS011;23292;51.300;6.252;2022-10-17T09:42:13;8.98;;;4.30;;
37431;SDS011;23292;51.300;6.252;2022-10-17T09:44:51;6.45;;;3.75;;
37431;SDS011;23292;51.300;6.252;2022-10-17T09:47:31;9.27;;;4.72;;
37431;SDS011;23292;51.300;6.252;2022-10-17T09:50:04;11.75;;;4.30;;
37431;SDS011;23292;51.300;6.252;2022-10-17T09:52:41;11.13;;;5.45;;
37431;SDS011;23292;51.300;6.252;2022-10-17T09:55:30;11.15;;;5.13;;
37431;SDS011;23292;51.300;6.252;2022-10-17T09:58:09;9.30;;;4.93;;
37431;SDS011;23292;51.300;6.252;2022-10-17T10:00:38;9.90;;;4.70;;
37431;SDS011;23292;51.300;6.252;2022-10-17T10:03:15;7.00;;;4.55;;
37431;SDS011;23292;51.300;6.252;2022-10-17T10:11:16;11.85;;;5.28;;
37431;SDS011;23292;51.300;6.252;2022-10-17T10:13:44;11.98;;;4.95;;
37431;SDS011;23292;51.300;6.252;2022-10-17T10:16:17;9.13;;;4.60;;
37431;SDS011;23292;51.300;6.252;2022-10-17T10:18:46;11.20;;;4.55;;
37431;SDS011;23292;51.300;6.252;2022-10-17T10:21:20;11.75;;;4.90;;
37431;SDS011;23292;51.300;6.252;2022-10-17T10:29:23;9.00;;;4.70;;
37431;SDS011;23292;51.300;6.252;2022-10-17T10:32:22;13.38;;;5.30;;
37431;SDS011;23292;51.300;6.252;2022-10-17T10:34:57;9.90;;;4.93;;
37431;SDS011;23292;51.300;6.252;2022-10-17T10:37:27;9.35;;;5.70;;
37431;SDS011;23292;51.300;6.252;2022-10-17T10:40:00;12.05;;;5.75;;
37431;SDS011;23292;51.300;6.252;2022-10-17T10:42:30;14.20;;;5.72;;
37431;SDS011;23292;51.300;6.252;2022-10-17T10:45:45;17.10;;;6.30;;
37431;SDS011;23292;51.300;6.252;2022-10-17T10:50:56;16.33;;;6.47;;
37431;SDS011;23292;51.300;6.252;2022-10-17T10:53:33;21.67;;;8.80;;
37431;SDS011;23292;51.300;6.252;2022-10-17T10:56:39;13.90;;;8.65;;
37431;SDS011;23292;51.300;6.252;2022-10-17T11:07:17;12.35;;;7.22;;
37431;SDS011;23292;51.300;6.252;2022-10-17T11:10:13;11.10;;;6.13;;
37431;SDS011;23292;51.300;6.252;2022-10-17T11:26:20;14.13;;;7.43;;
37431;SDS011;23292;51.300;6.252;2022-10-17T11:28:52;13.52;;;7.38;;
37431;SDS011;23292;51.300;6.252;2022-10-17T11:31:20;12.40;;;6.65;;
37431;SDS011;23292;51.300;6.252;2022-10-17T11:36:25;9.77;;;5.75;;
37431;SDS011;23292;51.300;6.252;2022-10-17T11:39:36;14.73;;;5.95;;
37431;SDS011;23292;51.300;6.252;2022-10-17T11:42:13;8.25;;;4.72;;
37431;SDS011;23292;51.300;6.252;2022-10-17T11:44:44;14.90;;;5.57;;
37431;SDS011;23292;51.300;6.252;2022-10-17T11:47:25;9.82;;;4.63;;
37431;SDS011;23292;51.300;6.252;2022-10-17T11:49:59;8.63;;;4.72;;
37431;SDS011;23292;51.300;6.252;2022-10-17T11:52:55;10.82;;;5.13;;
37431;SDS011;23292;51.300;6.252;2022-10-17T11:55:35;9.27;;;5.03;;
37431;SDS011;23292;51.300;6.252;2022-10-17T11:58:11;9.90;;;4.80;;
37431;SDS011;23292;51.300;6.252;2022-10-17T12:03:33;13.65;;;5.55;;
37431;SDS011;23292;51.300;6.252;2022-10-17T12:06:44;12.10;;;4.75;;
37431;SDS011;23292;51.300;6.252;2022-10-17T12:12:22;10.55;;;5.95;;
37431;SDS011;23292;51.300;6.252;2022-10-17T12:14:51;7.72;;;4.80;;
37431;SDS011;23292;51.300;6.252;2022-10-17T12:17:34;12.00;;;4.45;;
37431;SDS011;23292;51.300;6.252;2022-10-17T12:33:48;11.00;;;4.47;;
37431;SDS011;23292;51.300;6.252;2022-10-17T12:52:04;11.55;;;4.38;;
37431;SDS011;23292;51.300;6.252;2022-10-17T12:54:41;10.52;;;4.00;;
37431;SDS011;23292;51.300;6.252;2022-10-17T13:00:03;13.57;;;4.25;;
37431;SDS011;23292;51.300;6.252;2022-10-17T13:02:39;13.02;;;5.32;;
37431;SDS011;23292;51.300;6.252;2022-10-17T13:05:07;12.00;;;4.22;;
37431;SDS011;23292;51.300;6.252;2022-10-17T13:07:41;9.15;;;4.57;;
37431;SDS011;23292;51.300;6.252;2022-10-17T13:10:30;8.50;;;4.47;;
37431;SDS011;23292;51.300;6.252;2022-10-17T13:13:03;15.57;;;4.80;;
37431;SDS011;23292;51.300;6.252;2022-10-17T13:15:31;10.15;;;4.45;;
37431;SDS011;23292;51.300;6.252;2022-10-17T13:18:00;14.18;;;5.50;;
37431;SDS011;23292;51.300;6.252;2022-10-17T13:20:27;11.88;;;4.03;;
37431;SDS011;23292;51.300;6.252;2022-10-17T13:22:57;10.30;;;4.43;;
37431;SDS011;23292;51.300;6.252;2022-10-17T13:25:24;12.35;;;4.40;;
37431;SDS011;23292;51.300;6.252;2022-10-17T13:28:02;12.93;;;5.10;;
37431;SDS011;23292;51.300;6.252;2022-10-17T13:30:34;10.30;;;4.38;;
37431;SDS011;23292;51.300;6.252;2022-10-17T13:33:02;12.98;;;4.30;;
37431;SDS011;23292;51.300;6.252;2022-10-17T13:35:41;13.55;;;4.35;;
37431;SDS011;23292;51.300;6.252;2022-10-17T13:38:26;9.77;;;4.45;;
37431;SDS011;23292;51.300;6.252;2022-10-17T13:40:57;14.77;;;4.30;;
37431;SDS011;23292;51.300;6.252;2022-10-17T13:43:41;13.77;;;4.07;;
37431;SDS011;23292;51.300;6.252;2022-10-17T13:46:14;14.73;;;4.70;;
37431;SDS011;23292;51.300;6.252;2022-10-17T13:49:11;8.63;;;4.47;;
37431;SDS011;23292;51.300;6.252;2022-10-17T13:51:44;14.20;;;5.00;;
37431;SDS011;23292;51.300;6.252;2022-10-17T13:57:15;11.63;;;4.43;;
37431;SDS011;23292;51.300;6.252;2022-10-17T14:00:00;9.90;;;3.88;;
37431;SDS011;23292;51.300;6.252;2022-10-17T14:02:39;9.48;;;4.05;;
37431;SDS011;23292;51.300;6.252;2022-10-17T14:10:40;10.77;;;4.00;;
37431;SDS011;23292;51.300;6.252;2022-10-17T14:15:53;8.60;;;4.05;;
37431;SDS011;23292;51.300;6.252;2022-10-17T14:18:32;9.98;;;4.10;;
37431;SDS011;23292;51.300;6.252;2022-10-17T14:21:02;10.73;;;4.05;;
37431;SDS011;23292;51.300;6.252;2022-10-17T14:23:52;11.27;;;4.38;;
37431;SDS011;23292;51.300;6.252;2022-10-17T14:26:54;11.57;;;3.83;;
37431;SDS011;23292;51.300;6.252;2022-10-17T14:31:59;14.30;;;4.45;;
37431;SDS011;23292;51.300;6.252;2022-10-17T14:34:33;8.68;;;4.03;;
37431;SDS011;23292;51.300;6.252;2022-10-17T14:37:06;13.25;;;4.15;;
37431;SDS011;23292;51.300;6.252;2022-10-17T14:39:38;20.10;;;6.10;;
37431;SDS011;23292;51.300;6.252;2022-10-17T14:42:05;12.23;;;4.75;;
37431;SDS011;23292;51.300;6.252;2022-10-17T14:44:32;7.85;;;4.30;;
37431;SDS011;23292;51.300;6.252;2022-10-17T14:47:04;14.18;;;4.72;;
37431;SDS011;23292;51.300;6.252;2022-10-17T14:52:37;15.00;;;5.28;;
37431;SDS011;23292;51.300;6.252;2022-10-17T14:55:22;8.90;;;4.20;;
37431;SDS011;23292;51.300;6.252;2022-10-17T14:57:50;10.32;;;4.65;;
37431;SDS011;23292;51.300;6.252;2022-10-17T15:00:18;9.07;;;4.57;;
37431;SDS011;23292;51.300;6.252;2022-10-17T15:02:46;9.27;;;4.95;;
37431;SDS011;23292;51.300;6.252;2022-10-17T15:05:14;9.85;;;4.40;;
37431;SDS011;23292;51.300;6.252;2022-10-17T15:07:41;9.23;;;4.80;;
37431;SDS011;23292;51.300;6.252;2022-10-17T15:10:19;14.63;;;5.78;;
37431;SDS011;23292;51.300;6.252;2022-10-17T15:13:01;8.82;;;5.03;;
37431;SDS011;23292;51.300;6.252;2022-10-17T15:15:49;12.18;;;6.25;;
37431;SDS011;23292;51.300;6.252;2022-10-17T15:18:17;10.90;;;5.88;;
37431;SDS011;23292;51.300;6.252;2022-10-17T15:20:44;15.13;;;6.35;;
37431;SDS011;23292;51.300;6.252;2022-10-17T15:23:11;12.10;;;6.00;;
37431;SDS011;23292;51.300;6.252;2022-10-17T15:25:38;11.77;;;5.60;;
37431;SDS011;23292;51.300;6.252;2022-10-17T15:28:05;13.75;;;5.78;;
37431;SDS011;23292;51.300;6.252;2022-10-17T15:30:33;15.73;;;6.68;;
37431;SDS011;23292;51.300;6.252;2022-10-17T15:33:01;12.65;;;6.20;;
37431;SDS011;23292;51.300;6.252;2022-10-17T15:35:28;13.02;;;7.35;;
37431;SDS011;23292;51.300;6.252;2022-10-17T15:37:56;18.27;;;8.15;;
37431;SDS011;23292;51.300;6.252;2022-10-17T15:40:27;16.88;;;7.03;;
37431;SDS011;23292;51.300;6.252;2022-10-17T15:42:54;12.63;;;6.40;;
37431;SDS011;23292;51.300;6.252;2022-10-17T15:45:22;11.50;;;6.10;;
37431;SDS011;23292;51.300;6.252;2022-10-17T15:47:53;13.00;;;6.40;;
37431;SDS011;23292;51.300;6.252;2022-10-17T15:50:22;14.13;;;7.30;;
37431;SDS011;23292;51.300;6.252;2022-10-17T15:52:49;14.02;;;6.53;;
37431;SDS011;23292;51.300;6.252;2022-10-17T15:55:16;14.63;;;7.35;;
37431;SDS011;23292;51.300;6.252;2022-10-17T15:57:44;16.67;;;7.68;;
37431;SDS011;23292;51.300;6.252;2022-10-17T16:00:14;14.05;;;6.95;;
37431;SDS011;23292;51.300;6.252;2022-10-17T16:02:44;12.70;;;7.20;;
37431;SDS011;23292;51.300;6.252;2022-10-17T16:05:15;13.60;;;7.78;;
37431;SDS011;23292;51.300;6.252;2022-10-17T16:07:52;13.90;;;8.85;;
37431;SDS011;23292;51.300;6.252;2022-10-17T16:10:19;19.15;;;10.05;;
37431;SDS011;23292;51.300;6.252;2022-10-17T16:12:47;17.98;;;9.50;;
37431;SDS011;23292;51.300;6.252;2022-10-17T16:15:17;17.77;;;8.75;;
37431;SDS011;23292;51.300;6.252;2022-10-17T16:17:51;13.13;;;8.52;;
37431;SDS011;23292;51.300;6.252;2022-10-17T16:20:20;19.83;;;10.82;;
37431;SDS011;23292;51.300;6.252;2022-10-17T16:22:48;13.15;;;7.88;;
37431;SDS011;23292;51.300;6.252;2022-10-17T16:27:52;11.73;;;7.07;;
37431;SDS011;23292;51.300;6.252;2022-10-17T16:30:22;15.85;;;7.78;;
37431;SDS011;23292;51.300;6.252;2022-10-17T16:32:50;11.13;;;7.40;;
37431;SDS011;23292;51.300;6.252;2022-10-17T16:35:18;25.25;;;10.30;;
37431;SDS011;23292;51.300;6.252;2022-10-17T16:37:51;12.10;;;7.63;;
37431;SDS011;23292;51.300;6.252;2022-10-17T16:40:17;13.38;;;8.70;;
37431;SDS011;23292;51.300;6.252;2022-10-17T16:42:44;14.98;;;8.90;;
37431;SDS011;23292;51.300;6.252;2022-10-17T16:45:18;12.75;;;8.70;;
37431;SDS011;23292;51.300;6.252;2022-10-17T16:47:47;16.08;;;8.02;;
37431;SDS011;23292;51.300;6.252;2022-10-17T16:50:15;12.98;;;7.78;;
37431;SDS011;23292;51.300;6.252;2022-10-17T16:52:42;10.93;;;7.35;;
37431;SDS011;23292;51.300;6.252;2022-10-17T16:55:09;13.85;;;7.53;;
37431;SDS011;23292;51.300;6.252;2022-10-17T16:57:36;13.10;;;7.03;;
37431;SDS011;23292;51.300;6.252;2022-10-17T17:00:03;13.68;;;8.40;;
37431;SDS011;23292;51.300;6.252;2022-10-17T17:02:31;15.82;;;8.30;;
37431;SDS011;23292;51.300;6.252;2022-10-17T17:04:58;15.13;;;8.68;;
37431;SDS011;23292;51.300;6.252;2022-10-17T17:07:26;16.55;;;8.23;;
37431;SDS011;23292;51.300;6.252;2022-10-17T17:09:55;13.27;;;8.32;;
37431;SDS011;23292;51.300;6.252;2022-10-17T17:12:21;18.50;;;10.65;;
37431;SDS011;23292;51.300;6.252;2022-10-17T17:14:48;17.30;;;10.65;;
37431;SDS011;23292;51.300;6.252;2022-10-17T17:17:15;16.73;;;10.80;;
37431;SDS011;23292;51.300;6.252;2022-10-17T17:20:02;19.48;;;10.68;;
37431;SDS011;23292;51.300;6.252;2022-10-17T17:22:29;14.10;;;10.00;;